Impacts TAF Board INFO
FOR SITUATIONAL AWARENESS. NOT TO BE USED FOR FLIGHT PLANNING PURPOSES.
IDs:

KSTL - St Louis/Lambert Int, MO, US

Issued at 0520 UTC 12 Dec 2017
Updated at 0815 UTC 12 Dec 2017
Potential Impact None Slight Moderate High
Time<<13/09Z 13/10Z 13/11Z 13/12Z 13/13Z 13/14Z 13/15Z 13/16Z 13/17Z 13/18Z 13/19Z 13/20Z 13/21Z
Type PRVL PRVL PRVL
VIS >6 >6 >6
CIG -- -- --
Cover FEW FEW FEW
FltCat VFR VFR VFR
WX -- -- --
WDir 290 290 290
WSpd 5 5 5
WGst -- -- --

Raw TAF
KSTL 120520Z 1206/1312 32019G29KT P6SM OVC025
  FM121200 32014G22KT P6SM SCT030
  FM122300 30009KT P6SM FEW200
  FM130100 29005KT P6SM FEW200


METAR Board
Radar Display
Forecast Discussion

FOR SITUATIONAL AWARENESS. NOT TO BE USED FOR FLIGHT PLANNING PURPOSES.